createdAt,value
2022-12-17T00:01:56.828Z,4.57
2022-12-17T00:04:43.349Z,4.13
2022-12-17T00:07:30.037Z,3.85
2022-12-17T00:10:16.758Z,4.10
2022-12-17T00:13:05.735Z,5.03
2022-12-17T00:15:52.823Z,3.78
2022-12-17T00:18:39.918Z,3.95
2022-12-17T00:21:29.699Z,5.53
2022-12-17T00:24:16.472Z,10.63
2022-12-17T00:27:02.990Z,5.53
2022-12-17T00:29:49.741Z,4.05
2022-12-17T00:32:36.386Z,5.28
2022-12-17T00:35:23.198Z,4.15
2022-12-17T00:38:09.788Z,4.53
2022-12-17T00:40:56.373Z,5.40
2022-12-17T00:43:43.548Z,7.32
2022-12-17T00:46:30.658Z,3.92
2022-12-17T00:49:17.052Z,3.70
2022-12-17T00:52:03.817Z,3.58
2022-12-17T00:54:50.351Z,5.93
2022-12-17T00:57:36.820Z,4.55
2022-12-17T01:00:24.821Z,3.75
2022-12-17T01:03:11.808Z,5.45
2022-12-17T01:05:58.511Z,5.50
2022-12-17T01:08:45.029Z,4.78
2022-12-17T01:11:31.553Z,4.28
2022-12-17T01:14:18.501Z,3.53
2022-12-17T01:17:06.006Z,6.20
2022-12-17T01:19:58.015Z,3.88
2022-12-17T01:22:44.386Z,6.57
2022-12-17T01:25:30.958Z,5.72
2022-12-17T01:28:17.485Z,7.10
2022-12-17T01:31:06.937Z,5.13
2022-12-17T01:33:54.081Z,6.70
2022-12-17T01:36:48.261Z,7.13
2022-12-17T01:39:34.993Z,8.63
2022-12-17T01:42:30.583Z,8.27
2022-12-17T01:45:20.276Z,9.35
2022-12-17T01:48:28.525Z,10.55
2022-12-17T02:11:12.172Z,15.32
2022-12-17T02:14:34.647Z,15.13
2022-12-17T02:17:25.468Z,13.05
2022-12-17T02:21:07.321Z,15.48
2022-12-17T02:24:48.535Z,10.98
2022-12-17T02:39:38.197Z,14.10
2022-12-17T02:42:32.330Z,9.55
2022-12-17T03:22:38.720Z,7.70
2022-12-17T03:53:05.917Z,6.65
2022-12-17T03:56:02.926Z,10.10
2022-12-17T04:02:38.928Z,6.72
2022-12-17T04:05:26.310Z,9.10
2022-12-17T04:08:25.239Z,8.30
2022-12-17T04:11:15.937Z,6.93
2022-12-17T04:14:03.392Z,7.95
2022-12-17T04:16:49.838Z,7.20
2022-12-17T04:19:36.535Z,8.13
2022-12-17T04:22:22.920Z,9.50
2022-12-17T04:25:09.765Z,6.35
2022-12-17T04:27:56.270Z,10.43
2022-12-17T04:30:42.971Z,7.32
2022-12-17T04:33:29.587Z,8.07
2022-12-17T04:36:16.253Z,6.93
2022-12-17T04:39:02.722Z,6.70
2022-12-17T04:41:49.339Z,8.65
2022-12-17T04:44:36.065Z,6.05
2022-12-17T04:47:22.981Z,7.45
2022-12-17T04:50:09.409Z,6.30
2022-12-17T04:52:56.091Z,8.00
2022-12-17T04:55:42.987Z,9.00
2022-12-17T04:58:29.680Z,7.20
2022-12-17T05:01:16.675Z,7.38
2022-12-17T05:04:03.648Z,7.03
2022-12-17T05:06:50.298Z,7.05
2022-12-17T05:09:36.954Z,6.15
2022-12-17T05:12:23.767Z,6.05
2022-12-17T05:15:10.254Z,8.30
2022-12-17T05:17:56.784Z,6.25
2022-12-17T05:20:43.275Z,6.78
2022-12-17T05:23:29.600Z,6.57
2022-12-17T05:26:33.463Z,7.40
2022-12-17T05:29:20.177Z,6.22
2022-12-17T05:32:07.934Z,6.38
2022-12-17T05:34:54.408Z,6.93
2022-12-17T05:37:41.474Z,8.32
2022-12-17T05:40:29.154Z,5.90
2022-12-17T05:43:20.975Z,5.88
2022-12-17T05:48:55.241Z,6.65
2022-12-17T05:51:42.460Z,5.63
2022-12-17T05:54:29.317Z,5.50
2022-12-17T05:57:15.834Z,6.60
2022-12-17T06:00:02.234Z,7.95
2022-12-17T06:02:48.741Z,7.45
2022-12-17T06:05:35.244Z,7.28
2022-12-17T06:08:24.157Z,6.45
2022-12-17T06:11:11.198Z,6.38
2022-12-17T06:13:57.654Z,7.45
2022-12-17T06:16:44.401Z,5.53
2022-12-17T06:19:30.756Z,6.13
2022-12-17T06:22:17.126Z,7.07
2022-12-17T06:25:03.681Z,7.95
2022-12-17T06:27:50.392Z,6.30
2022-12-17T06:30:36.967Z,6.40
2022-12-17T06:33:28.516Z,9.48
2022-12-17T06:36:22.121Z,5.63
2022-12-17T06:39:09.774Z,6.18
2022-12-17T06:42:04.626Z,5.63
2022-12-17T06:44:52.358Z,5.25
2022-12-17T06:47:39.105Z,7.57
2022-12-17T06:50:26.339Z,6.00
2022-12-17T06:53:20.910Z,7.50
2022-12-17T06:56:07.563Z,8.30
2022-12-17T06:58:54.140Z,6.15
2022-12-17T07:01:40.992Z,6.05
2022-12-17T07:04:27.757Z,6.53
2022-12-17T07:07:14.253Z,5.88
2022-12-17T07:10:00.656Z,5.40
2022-12-17T07:12:47.512Z,5.25
2022-12-17T07:15:34.094Z,5.72
2022-12-17T07:18:23.182Z,5.65
2022-12-17T07:21:13.289Z,8.48
2022-12-17T07:23:59.920Z,5.40
2022-12-17T07:26:46.457Z,5.43
2022-12-17T07:29:33.130Z,6.38
2022-12-17T07:32:19.601Z,6.30
2022-12-17T07:35:06.057Z,5.97
2022-12-17T07:37:52.422Z,5.90
2022-12-17T07:40:39.266Z,6.53
2022-12-17T07:43:36.348Z,5.82
2022-12-17T07:46:23.960Z,5.57
2022-12-17T07:49:10.691Z,6.25
2022-12-17T07:51:57.215Z,5.80
2022-12-17T07:54:43.895Z,5.50
2022-12-17T07:57:30.498Z,6.05
2022-12-17T08:00:19.353Z,6.03
2022-12-17T08:03:06.114Z,4.95
2022-12-17T08:05:52.979Z,5.18
2022-12-17T08:08:39.946Z,4.68
2022-12-17T08:11:26.321Z,6.82
2022-12-17T08:14:12.924Z,4.25
2022-12-17T08:16:59.422Z,5.05
2022-12-17T08:19:46.081Z,6.38
2022-12-17T08:22:32.607Z,4.05
2022-12-17T08:25:19.221Z,5.40
2022-12-17T08:28:11.191Z,6.22
2022-12-17T08:31:03.084Z,4.78
2022-12-17T08:33:49.477Z,5.05
2022-12-17T08:36:36.004Z,7.07
2022-12-17T08:39:23.059Z,4.50
2022-12-17T08:42:09.473Z,4.78
2022-12-17T08:44:55.984Z,6.93
2022-12-17T08:47:43.915Z,4.75
2022-12-17T08:50:30.237Z,4.43
2022-12-17T08:53:21.578Z,5.50
2022-12-17T08:56:08.436Z,4.55
2022-12-17T08:58:59.057Z,4.78
2022-12-17T09:01:46.260Z,4.78
2022-12-17T09:04:33.068Z,4.80
2022-12-17T09:07:19.470Z,4.82
2022-12-17T09:10:06.232Z,5.72
2022-12-17T09:12:52.913Z,4.80
2022-12-17T09:15:39.637Z,5.05
2022-12-17T09:18:26.147Z,4.78
2022-12-17T09:21:14.167Z,4.13
2022-12-17T09:24:00.866Z,5.00
2022-12-17T09:26:47.487Z,4.75
2022-12-17T09:29:34.175Z,6.32
2022-12-17T09:32:20.869Z,5.75
2022-12-17T09:35:07.366Z,5.20
2022-12-17T09:37:54.075Z,6.05
2022-12-17T09:40:44.565Z,4.63
2022-12-17T09:43:47.810Z,5.82
2022-12-17T09:46:43.998Z,4.22
2022-12-17T09:49:45.504Z,5.20
2022-12-17T09:52:44.570Z,6.47
2022-12-17T09:56:01.686Z,4.93
2022-12-17T09:58:50.113Z,6.03
2022-12-17T10:01:45.104Z,5.55
2022-12-17T10:04:40.306Z,6.25
2022-12-17T10:07:34.754Z,5.38
2022-12-17T10:10:33.366Z,5.25
2022-12-17T10:13:20.101Z,3.92
2022-12-17T10:16:06.532Z,4.43
2022-12-17T10:18:53.135Z,4.50
2022-12-17T10:21:43.751Z,4.63
2022-12-17T10:24:30.958Z,5.10
2022-12-17T10:27:17.821Z,6.50
2022-12-17T10:30:04.989Z,5.05
2022-12-17T10:32:51.600Z,4.60
2022-12-17T10:35:41.259Z,4.78
2022-12-17T10:38:43.589Z,9.73
2022-12-17T10:41:40.561Z,5.07
2022-12-17T10:44:44.843Z,4.72
2022-12-17T10:47:33.708Z,5.25
2022-12-17T10:50:41.767Z,4.72
2022-12-17T10:53:43.557Z,5.93
2022-12-17T10:56:46.263Z,5.05
2022-12-17T10:59:44.415Z,6.18
2022-12-17T11:02:42.009Z,6.07
2022-12-17T11:05:43.110Z,6.85
2022-12-17T11:08:46.626Z,4.45
2022-12-17T11:11:35.341Z,8.48
2022-12-17T11:14:26.269Z,4.78
2022-12-17T11:17:22.226Z,4.47
2022-12-17T11:20:16.075Z,4.90
2022-12-17T11:23:17.748Z,5.88
2022-12-17T11:26:10.320Z,5.82
2022-12-17T11:28:56.779Z,4.45
2022-12-17T11:32:07.831Z,6.20
2022-12-17T11:35:12.818Z,6.80
2022-12-17T11:38:19.603Z,5.38
2022-12-17T11:41:30.779Z,4.28
2022-12-17T11:44:37.785Z,7.82
2022-12-17T11:47:45.830Z,5.35
2022-12-17T11:50:52.267Z,3.83
2022-12-17T11:53:56.866Z,5.25
2022-12-17T11:56:47.028Z,6.05
2022-12-17T11:59:53.303Z,4.72
2022-12-17T12:03:18.697Z,6.93
2022-12-17T12:06:13.172Z,6.40
2022-12-17T12:08:59.396Z,4.85
2022-12-17T12:11:54.668Z,5.13
2022-12-17T12:15:03.700Z,4.85
2022-12-17T12:18:28.024Z,4.18
2022-12-17T12:21:36.692Z,4.78
2022-12-17T12:24:44.366Z,5.55
2022-12-17T12:27:56.583Z,6.07
2022-12-17T12:33:52.801Z,5.10
2022-12-17T12:36:40.510Z,4.78
2022-12-17T12:39:32.355Z,6.32
2022-12-17T12:42:26.532Z,3.80
2022-12-17T12:45:29.570Z,4.00
2022-12-17T12:48:37.007Z,4.53
2022-12-17T12:51:34.870Z,6.75
2022-12-17T12:54:40.262Z,4.47
2022-12-17T12:57:53.370Z,5.32
2022-12-17T13:01:14.185Z,4.35
2022-12-17T13:04:13.138Z,4.63
2022-12-17T13:06:56.956Z,5.30
2022-12-17T13:09:48.593Z,5.47
2022-12-17T13:12:25.820Z,6.78
2022-12-17T13:15:18.387Z,4.45
2022-12-17T13:17:58.891Z,4.00
2022-12-17T13:20:35.820Z,4.63
2022-12-17T13:23:12.805Z,5.40
2022-12-17T13:25:41.174Z,5.32
2022-12-17T13:28:35.882Z,4.70
2022-12-17T13:31:15.749Z,6.03
2022-12-17T13:33:56.253Z,5.95
2022-12-17T13:36:39.743Z,6.57
2022-12-17T13:39:30.752Z,3.45
2022-12-17T13:41:59.106Z,7.50
2022-12-17T13:44:32.713Z,5.82
2022-12-17T13:47:01.834Z,3.97
2022-12-17T13:49:31.633Z,4.80
2022-12-17T13:52:22.264Z,7.25
2022-12-17T13:54:50.578Z,4.40
2022-12-17T13:57:27.024Z,4.95
2022-12-17T13:59:58.251Z,7.80
2022-12-17T14:02:40.012Z,6.30
2022-12-17T14:08:02.199Z,5.30
2022-12-17T14:10:31.324Z,6.18
2022-12-17T14:13:18.952Z,8.63
2022-12-17T14:15:51.716Z,4.93
2022-12-17T14:18:22.505Z,5.70
2022-12-17T14:20:59.458Z,4.90
2022-12-17T14:23:31.652Z,6.60
2022-12-17T14:26:00.754Z,5.15
2022-12-17T14:29:45.179Z,5.53
2022-12-17T14:42:08.620Z,5.63
2022-12-17T14:51:07.451Z,6.18
2022-12-17T14:53:39.098Z,6.45
2022-12-17T14:59:38.873Z,5.40
2022-12-17T15:02:37.506Z,7.00
2022-12-17T15:05:37.681Z,6.90
2022-12-17T15:08:02.253Z,5.15
2022-12-17T15:10:41.143Z,6.68
2022-12-17T15:13:15.218Z,4.82
2022-12-17T15:15:43.589Z,6.55
2022-12-17T15:18:38.809Z,7.35
2022-12-17T15:25:57.400Z,4.72
2022-12-17T15:28:30.263Z,6.43
2022-12-17T15:43:41.079Z,5.40
2022-12-17T15:50:28.136Z,6.70
2022-12-17T15:52:56.469Z,5.77
2022-12-17T16:02:50.009Z,8.65
2022-12-17T16:05:39.308Z,5.82
2022-12-17T16:27:39.577Z,4.50
2022-12-17T16:30:36.439Z,9.02
2022-12-17T16:33:10.690Z,5.20
2022-12-17T16:35:38.928Z,5.32
2022-12-17T16:38:10.664Z,7.10
2022-12-17T16:40:39.056Z,4.45
2022-12-17T16:43:07.762Z,6.72
2022-12-17T16:48:08.869Z,4.07
2022-12-17T16:50:37.692Z,4.82
2022-12-17T16:53:06.387Z,3.83
2022-12-17T16:55:35.517Z,5.25
2022-12-17T16:58:03.843Z,4.88
2022-12-17T17:00:35.187Z,4.47
2022-12-17T17:03:04.199Z,3.08
2022-12-17T17:05:45.114Z,4.18
2022-12-17T17:11:15.170Z,3.83
2022-12-17T17:13:45.286Z,4.53
2022-12-17T17:16:17.196Z,4.20
2022-12-17T17:18:45.647Z,5.38
2022-12-17T17:21:29.091Z,3.65
2022-12-17T17:28:42.850Z,3.97
2022-12-17T17:31:16.822Z,3.00
2022-12-17T17:33:49.638Z,2.88
2022-12-17T17:36:32.414Z,2.03
2022-12-17T17:39:03.023Z,3.20
2022-12-17T17:41:33.413Z,2.92
2022-12-17T17:44:07.626Z,2.25
2022-12-17T17:46:39.088Z,2.63
2022-12-17T17:49:14.521Z,4.53
2022-12-17T17:54:40.360Z,1.90
2022-12-17T17:57:09.439Z,4.25
2022-12-17T17:59:40.634Z,3.30
2022-12-17T18:02:12.502Z,3.38
2022-12-17T18:05:11.491Z,4.13
2022-12-17T18:07:41.423Z,2.30
2022-12-17T18:10:10.315Z,3.40
2022-12-17T18:12:57.132Z,4.07
2022-12-17T18:15:35.632Z,3.67
2022-12-17T18:18:14.325Z,5.20
2022-12-17T18:35:14.584Z,5.47
2022-12-17T18:37:53.457Z,2.88
2022-12-17T18:59:58.754Z,5.35
2022-12-17T19:02:27.497Z,4.32
2022-12-17T19:04:55.989Z,2.45
2022-12-17T19:07:28.253Z,2.20
2022-12-17T19:09:56.707Z,2.45
2022-12-17T19:12:26.821Z,2.25
2022-12-17T19:14:55.169Z,2.20
2022-12-17T19:17:23.477Z,3.78
2022-12-17T19:19:53.585Z,2.50
2022-12-17T19:22:24.977Z,2.58
2022-12-17T19:25:13.377Z,3.55
2022-12-17T19:27:44.938Z,3.13
2022-12-17T19:30:13.558Z,2.03
2022-12-17T19:32:41.841Z,2.38
2022-12-17T19:35:13.226Z,1.88
2022-12-17T19:37:44.726Z,4.00
2022-12-17T19:57:46.597Z,2.60
2022-12-17T20:00:53.441Z,2.28
2022-12-17T20:14:52.054Z,3.00
2022-12-17T20:20:15.286Z,2.72
2022-12-17T20:22:43.744Z,3.20
2022-12-17T20:25:12.290Z,2.60
2022-12-17T20:27:44.923Z,2.20
2022-12-17T20:30:13.424Z,2.85
2022-12-17T20:32:44.350Z,3.97
2022-12-17T20:35:15.210Z,2.58
2022-12-17T20:37:43.452Z,2.72
2022-12-17T20:40:14.342Z,2.10
2022-12-17T20:42:43.907Z,4.00
2022-12-17T20:45:14.679Z,3.80
2022-12-17T20:47:46.003Z,2.42
2022-12-17T20:52:44.701Z,2.90
2022-12-17T20:55:16.214Z,3.58
2022-12-17T20:57:44.700Z,2.40
2022-12-17T21:00:13.427Z,2.63
2022-12-17T21:02:44.729Z,3.72
2022-12-17T21:05:16.085Z,2.60
2022-12-17T21:10:15.068Z,3.08
2022-12-17T21:13:04.659Z,3.03
2022-12-17T21:15:33.790Z,3.75
2022-12-17T21:18:02.656Z,2.78
2022-12-17T21:20:31.462Z,2.92
2022-12-17T21:23:01.443Z,3.05
2022-12-17T21:25:30.272Z,3.17
2022-12-17T21:27:58.503Z,2.30
2022-12-17T21:30:27.739Z,3.17
2022-12-17T21:32:56.451Z,4.70
2022-12-17T21:35:29.119Z,3.25
2022-12-17T21:37:57.409Z,3.15
2022-12-17T21:40:26.966Z,3.47
2022-12-17T21:43:04.415Z,4.10
2022-12-17T21:46:16.280Z,3.88
2022-12-17T21:51:23.756Z,3.13
2022-12-17T21:54:19.774Z,3.25
2022-12-17T21:57:30.717Z,3.30
2022-12-17T22:00:31.948Z,3.40
2022-12-17T22:03:06.877Z,3.33
2022-12-17T22:06:18.484Z,3.80
2022-12-17T22:09:29.944Z,3.15
2022-12-17T22:19:29.889Z,2.55
2022-12-17T22:21:59.376Z,4.30
2022-12-17T22:24:27.789Z,2.97
2022-12-17T22:27:01.671Z,3.55
2022-12-17T22:29:48.748Z,4.25
2022-12-17T22:32:35.237Z,3.85
2022-12-17T22:36:42.243Z,3.92
2022-12-17T22:42:31.689Z,3.33
2022-12-17T22:44:34.690Z,3.63
2022-12-17T22:44:42.467Z,3.08
2022-12-17T22:46:23.260Z,4.03
2022-12-17T22:48:51.842Z,3.70
2022-12-17T22:51:36.130Z,4.18
2022-12-17T22:54:08.072Z,3.83
2022-12-17T22:57:31.280Z,3.83
2022-12-17T22:59:27.400Z,3.90
2022-12-17T23:01:55.970Z,4.78
2022-12-17T23:04:24.312Z,5.13
2022-12-17T23:06:52.943Z,3.70
2022-12-17T23:09:21.421Z,3.88
2022-12-17T23:11:50.333Z,3.90
2022-12-17T23:14:19.124Z,4.10
2022-12-17T23:16:47.610Z,2.92
2022-12-17T23:19:19.937Z,3.58
2022-12-17T23:21:48.857Z,4.18
2022-12-17T23:26:51.497Z,5.15
2022-12-17T23:29:19.906Z,4.75
2022-12-17T23:31:48.813Z,5.13
2022-12-17T23:50:26.557Z,4.78
2022-12-17T23:59:53.147Z,4.03
